Time;durP1;ratioP1;P1;durP2;ratioP2;P2;SDS_P1;SDS_P2;PMS_P1;PMS_P2;Temp;Humidity;BMP_temperature;BMP_pressure;BME280_temperature;BME280_humidity;BME280_pressure;Samples;Min_cycle;Max_cycle;Signal;HPM_P1;HPM_P2
2022/11/06 00:00:33;;;;;;;12.30;4.78;;;;;;;11.80;57.23;101546.50;4931212;28;99565;-71
2022/11/06 00:03:00;;;;;;;11.70;4.57;;;;;;;11.90;56.68;101547.09;4932153;28;96921;-71
2022/11/06 00:08:12;;;;;;;12.25;4.43;;;;;;;11.83;56.66;101546.41;4925367;28;97732;-72
2022/11/06 00:10:39;;;;;;;12.65;4.40;;;;;;;11.84;56.66;101549.94;4934038;28;98854;-73
2022/11/06 00:13:05;;;;;;;13.10;4.65;;;;;;;11.88;56.65;101547.13;4924738;28;99583;-73
2022/11/06 00:15:32;;;;;;;8.98;4.25;;;;;;;11.81;57.00;101550.03;4932541;28;97246;-71
2022/11/06 00:17:59;;;;;;;12.35;4.97;;;;;;;11.72;57.08;101535.22;4930574;28;99181;-71
2022/11/06 00:20:25;;;;;;;12.48;4.70;;;;;;;11.57;57.52;101543.56;4931956;28;98725;-71
2022/11/06 00:22:52;;;;;;;12.25;5.20;;;;;;;11.61;57.20;101542.59;4933398;28;97116;-72
2022/11/06 00:25:20;;;;;;;19.58;6.57;;;;;;;11.57;57.62;101544.44;4930160;28;97029;-71
2022/11/06 00:27:46;;;;;;;19.98;5.60;;;;;;;11.70;57.15;101544.09;4927762;28;98974;-70
2022/11/06 00:30:13;;;;;;;15.73;5.55;;;;;;;11.44;58.17;101537.75;4930652;28;98876;-71
2022/11/06 00:32:39;;;;;;;18.40;5.88;;;;;;;11.58;57.36;101548.84;4932313;28;96848;-71
2022/11/06 00:35:07;;;;;;;12.98;5.43;;;;;;;11.41;58.19;101547.56;4931079;28;96786;-72
2022/11/06 00:37:34;;;;;;;13.73;5.53;;;;;;;11.29;58.50;101542.59;4932068;28;98978;-71
2022/11/06 00:40:00;;;;;;;16.27;5.55;;;;;;;11.16;58.50;101540.22;4930305;28;97659;-71
2022/11/06 00:42:28;;;;;;;13.10;6.28;;;;;;;11.30;58.61;101537.22;4932391;28;97345;-71
2022/11/06 00:44:55;;;;;;;12.77;5.72;;;;;;;11.40;57.98;101540.53;4930660;28;97065;-71
2022/11/06 00:47:21;;;;;;;12.23;4.88;;;;;;;11.29;58.44;101540.78;4932231;28;98995;-73
2022/11/06 00:49:47;;;;;;;13.82;5.35;;;;;;;11.38;58.09;101531.75;4931960;28;100726;-71
2022/11/06 00:52:14;;;;;;;15.35;5.75;;;;;;;11.29;58.35;101538.13;4926187;28;97566;-71
2022/11/06 00:54:41;;;;;;;12.18;5.32;;;;;;;11.46;57.76;101540.34;4930145;28;97011;-70
2022/11/06 00:57:07;;;;;;;10.05;4.80;;;;;;;11.41;57.91;101540.50;4925195;28;98855;-71
2022/11/06 00:59:35;;;;;;;14.55;5.43;;;;;;;11.38;58.27;101542.31;4928439;28;99117;-71
2022/11/06 01:02:02;;;;;;;14.75;5.30;;;;;;;11.25;58.42;101539.13;4922936;28;97064;-70
2022/11/06 01:04:28;;;;;;;14.73;5.18;;;;;;;11.27;58.60;101544.38;4930951;28;96936;-70
2022/11/06 01:06:56;;;;;;;17.70;5.32;;;;;;;11.22;58.88;101539.22;4928909;28;98154;-70
2022/11/06 01:09:24;;;;;;;13.90;6.63;;;;;;;11.18;59.10;101540.19;4929096;28;101060;-70
2022/11/06 01:11:54;;;;;;;14.25;5.28;;;;;;;11.32;58.30;101537.19;4926702;28;98582;-71
2022/11/06 01:14:22;;;;;;;14.93;5.22;;;;;;;11.30;58.14;101534.59;4928891;28;97184;-70
2022/11/06 01:16:49;;;;;;;14.35;5.45;;;;;;;11.29;58.12;101537.28;4930937;28;99384;-69
2022/11/06 01:19:18;;;;;;;11.77;5.70;;;;;;;11.17;58.79;101528.75;4930345;28;96921;-70
2022/11/06 01:21:46;;;;;;;12.07;5.43;;;;;;;10.89;59.54;101533.00;4927026;28;98935;-71
2022/11/06 01:24:15;;;;;;;13.75;5.38;;;;;;;10.86;59.32;101533.06;4928462;28;97081;-70
2022/11/06 01:26:42;;;;;;;13.18;5.68;;;;;;;11.17;58.94;101533.16;4929615;28;99058;-70
2022/11/06 01:29:13;;;;;;;10.80;5.32;;;;;;;11.26;58.71;101525.00;4929416;28;101722;-71
2022/11/06 01:31:40;;;;;;;12.07;5.47;;;;;;;11.43;57.99;101520.13;4928548;28;96857;-71
2022/11/06 01:34:10;;;;;;;16.42;5.90;;;;;;;11.50;57.82;101508.47;4930512;28;98483;-70
2022/11/06 01:36:36;;;;;;;16.83;6.07;;;;;;;11.51;57.53;101510.19;4928458;28;99076;-70
2022/11/06 01:39:06;;;;;;;13.98;5.72;;;;;;;11.12;58.42;101509.47;4923913;28;99029;-69
2022/11/06 01:41:36;;;;;;;16.48;6.07;;;;;;;11.30;58.02;101512.53;4925170;28;96825;-70
2022/11/06 01:44:04;;;;;;;13.98;6.07;;;;;;;11.13;58.47;101505.06;4931711;28;96881;-70
2022/11/06 01:46:33;;;;;;;10.70;5.07;;;;;;;11.33;57.91;101504.53;4930587;28;99220;-69
2022/11/06 01:49:03;;;;;;;15.10;5.68;;;;;;;11.33;57.80;101501.91;4933903;28;99073;-69
2022/11/06 01:51:33;;;;;;;12.38;5.63;;;;;;;11.18;57.94;101496.09;4930637;28;98734;-70
2022/11/06 01:54:02;;;;;;;14.02;5.80;;;;;;;11.30;57.42;101491.38;4928306;28;96831;-70
2022/11/06 01:56:29;;;;;;;12.73;5.38;;;;;;;11.14;58.06;101501.50;4924235;28;98953;-70
2022/11/06 01:58:56;;;;;;;14.98;5.35;;;;;;;11.22;57.76;101488.09;4929249;28;97873;-71
2022/11/06 02:01:22;;;;;;;10.93;5.30;;;;;;;11.17;58.01;101482.91;4925396;28;97475;-70
2022/11/06 02:03:56;;;;;;;12.57;6.00;;;;;;;10.99;58.21;101496.59;4931200;28;96931;-71
2022/11/06 02:06:23;;;;;;;14.95;5.70;;;;;;;11.21;57.75;101486.34;4929043;28;99293;-71
2022/11/06 02:08:51;;;;;;;16.52;6.00;;;;;;;11.10;57.93;101487.47;4927114;28;99149;-70
2022/11/06 02:11:18;;;;;;;15.88;6.88;;;;;;;11.21;57.94;101486.34;4932336;28;96980;-71
2022/11/06 02:13:53;;;;;;;11.52;6.15;;;;;;;11.09;57.89;101480.44;4929834;28;97046;-72
2022/11/06 02:16:26;;;;;;;14.40;6.13;;;;;;;11.18;58.10;101472.28;4932047;28;99002;-69
2022/11/06 02:19:07;;;;;;;15.23;5.95;;;;;;;10.97;58.23;101479.91;4926831;28;98695;-69
2022/11/06 02:22:00;;;;;;;14.43;6.00;;;;;;;10.97;58.65;101477.25;4927764;28;96774;-71
2022/11/06 02:24:49;;;;;;;17.88;6.78;;;;;;;10.93;58.62;101465.91;4928349;28;98836;-70
2022/11/06 02:27:19;;;;;;;14.90;6.82;;;;;;;11.08;58.32;101465.50;4926015;28;99098;-70
2022/11/06 02:29:53;;;;;;;18.73;8.20;;;;;;;10.94;58.66;101466.78;4928339;28;101491;-70
2022/11/06 02:32:27;;;;;;;12.15;6.28;;;;;;;10.78;59.07;101464.50;4923088;28;97063;-69
2022/11/06 02:34:56;;;;;;;10.75;6.15;;;;;;;10.81;59.11;101458.28;4935444;28;96919;-71
2022/11/06 02:37:28;;;;;;;18.05;6.57;;;;;;;10.85;58.87;101453.78;4924443;28;99267;-70
2022/11/06 02:39:59;;;;;;;17.63;6.50;;;;;;;10.96;59.03;101462.31;4930007;28;99585;-70
2022/11/06 02:42:29;;;;;;;15.20;6.65;;;;;;;11.09;58.25;101463.75;4929316;28;96829;-70
2022/11/06 02:44:58;;;;;;;14.02;6.45;;;;;;;10.90;58.70;101459.81;4929047;28;97882;-70
2022/11/06 02:47:29;;;;;;;14.27;6.47;;;;;;;10.99;58.62;101464.88;4927438;28;100597;-70
2022/11/06 02:50:01;;;;;;;12.75;6.72;;;;;;;11.07;58.08;101461.13;4927923;28;100629;-70
2022/11/06 02:52:32;;;;;;;14.35;6.35;;;;;;;11.00;58.33;101462.19;4929968;28;97720;-70
2022/11/06 02:55:04;;;;;;;15.77;6.85;;;;;;;11.02;58.11;101467.44;4927787;28;96770;-71
2022/11/06 02:57:37;;;;;;;14.52;7.07;;;;;;;11.10;58.36;101452.22;4927352;28;99137;-70
2022/11/06 03:00:06;;;;;;;15.65;6.78;;;;;;;11.20;57.93;101451.09;4928093;28;97607;-70
2022/11/06 03:02:39;;;;;;;15.77;6.43;;;;;;;11.05;58.25;101460.28;4928042;28;97172;-70
2022/11/06 03:05:12;;;;;;;17.10;7.05;;;;;;;11.30;57.65;101463.16;4928591;28;96775;-71
2022/11/06 03:07:43;;;;;;;16.23;7.20;;;;;;;11.19;57.90;101462.56;4924962;28;99254;-69
2022/11/06 03:10:10;;;;;;;15.63;6.90;;;;;;;11.17;57.73;101459.97;4930005;28;99104;-71
2022/11/06 03:12:50;;;;;;;16.52;6.53;;;;;;;11.19;57.67;101463.44;4924808;28;96843;-71
2022/11/06 03:15:26;;;;;;;11.20;6.45;;;;;;;11.10;58.40;101462.81;4923510;28;98422;-69
2022/11/06 03:18:01;;;;;;;15.25;6.07;;;;;;;10.94;58.81;101457.06;4929660;28;97916;-70
2022/11/06 03:20:35;;;;;;;14.48;7.00;;;;;;;10.66;59.32;101456.88;4926682;28;98902;-69
2022/11/06 03:23:10;;;;;;;15.10;6.57;;;;;;;11.01;58.44;101457.78;4929049;28;96989;-71
2022/11/06 03:25:44;;;;;;;13.52;6.82;;;;;;;11.00;58.22;101467.47;4928464;28;97084;-69
2022/11/06 03:28:16;;;;;;;17.48;6.45;;;;;;;10.83;59.03;101461.72;4926465;28;98941;-70
2022/11/06 03:30:50;;;;;;;14.80;7.03;;;;;;;10.81;58.90;101455.66;4924510;28;98871;-70
2022/11/06 03:33:22;;;;;;;14.98;6.55;;;;;;;10.98;58.58;101456.06;4928363;28;97279;-70
2022/11/06 03:35:54;;;;;;;18.38;6.78;;;;;;;10.76;59.08;101458.38;4927554;28;96907;-70
2022/11/06 03:38:27;;;;;;;14.13;7.00;;;;;;;10.93;58.62;101454.44;4925033;28;99238;-70
2022/11/06 03:41:00;;;;;;;17.80;6.97;;;;;;;10.70;59.46;101453.25;4921914;28;99392;-70
2022/11/06 03:43:34;;;;;;;15.98;7.18;;;;;;;10.85;58.99;101452.00;4927458;28;99091;-70
2022/11/06 03:46:02;;;;;;;17.42;7.05;;;;;;;10.84;58.85;101455.53;4927481;28;96863;-71
2022/11/06 03:48:32;;;;;;;12.60;6.20;;;;;;;10.80;59.14;101453.91;4929664;28;98902;-71
2022/11/06 03:51:03;;;;;;;12.18;6.50;;;;;;;10.54;59.87;101451.91;4929977;28;98747;-70
2022/11/06 03:53:34;;;;;;;14.60;6.35;;;;;;;10.56;60.19;101436.88;4932172;28;97436;-70
2022/11/06 03:56:06;;;;;;;13.23;6.47;;;;;;;10.66;59.23;101434.88;4927593;28;96826;-71
2022/11/06 03:58:38;;;;;;;14.45;6.95;;;;;;;10.50;60.01;101437.00;4929082;28;99438;-70
2022/11/06 04:01:07;;;;;;;12.65;6.50;;;;;;;10.68;59.76;101447.16;4932835;28;98852;-70
2022/11/06 04:03:38;;;;;;;15.57;7.28;;;;;;;10.52;59.85;101444.91;4932230;28;96791;-70
2022/11/06 04:06:10;;;;;;;14.70;7.07;;;;;;;10.62;59.60;101446.44;4930186;28;97802;-71
2022/11/06 04:14:14;;;;;;;24.08;7.00;;;;;;;10.54;60.04;101435.19;4928431;28;97129;-71
2022/11/06 04:16:46;;;;;;;17.20;6.55;;;;;;;10.59;59.95;101428.88;4930556;28;98666;-71
2022/11/06 04:19:16;;;;;;;14.50;6.80;;;;;;;10.54;59.93;101430.75;4933317;28;98996;-71
2022/11/06 04:21:56;;;;;;;17.13;6.57;;;;;;;10.55;59.92;101437.78;4927899;28;98116;-70
2022/11/06 04:27:28;;;;;;;17.08;6.10;;;;;;;10.39;60.66;101424.06;4929439;28;98803;-71
2022/11/06 04:30:04;;;;;;;15.55;6.13;;;;;;;10.70;59.31;101425.94;4929560;28;98894;-71
2022/11/06 04:32:40;;;;;;;14.45;7.03;;;;;;;10.52;59.74;101422.00;4928891;28;98946;-71
2022/11/06 04:35:14;;;;;;;13.43;7.13;;;;;;;10.63;59.29;101432.31;4930357;28;96948;-71
2022/11/06 04:37:48;;;;;;;12.95;6.68;;;;;;;10.61;59.55;101432.34;4931591;28;96639;-71
2022/11/06 04:40:23;;;;;;;17.58;6.75;;;;;;;10.58;59.56;101429.75;4929458;28;98937;-72
2022/11/06 04:42:56;;;;;;;16.35;7.10;;;;;;;10.31;59.97;101435.72;4929219;28;98947;-71
2022/11/06 04:45:29;;;;;;;18.73;7.50;;;;;;;10.51;59.74;101435.22;4927266;28;96864;-71
2022/11/06 04:47:57;;;;;;;17.17;6.85;;;;;;;10.42;59.92;101432.84;4929485;28;96750;-71
2022/11/06 04:50:25;;;;;;;15.00;6.68;;;;;;;10.31;60.39;101425.13;4930573;28;98847;-72
2022/11/06 04:52:53;;;;;;;15.05;6.85;;;;;;;10.24;60.35;101423.59;4930352;28;99051;-70
2022/11/06 04:55:20;;;;;;;11.40;6.65;;;;;;;10.34;60.26;101423.31;4926079;28;98564;-71
2022/11/06 04:57:47;;;;;;;17.02;7.55;;;;;;;10.21;60.66;101423.63;4930467;28;98984;-71
2022/11/06 05:00:15;;;;;;;13.75;7.13;;;;;;;10.32;60.10;101418.97;4926998;28;99302;-71
2022/11/06 05:02:43;;;;;;;12.20;6.50;;;;;;;10.37;59.87;101412.66;4928871;28;98096;-71
2022/11/06 05:05:10;;;;;;;15.35;7.97;;;;;;;10.41;59.73;101412.59;4929755;28;96797;-72
2022/11/06 05:07:37;;;;;;;14.48;6.90;;;;;;;10.35;59.76;101408.34;4930020;28;96820;-70
2022/11/06 05:10:04;;;;;;;13.80;7.00;;;;;;;10.35;59.74;101408.34;4927597;28;98949;-71
2022/11/06 05:12:31;;;;;;;12.20;6.60;;;;;;;10.58;59.04;101408.63;4928614;28;98949;-70
2022/11/06 05:14:57;;;;;;;18.73;6.78;;;;;;;10.41;59.22;101413.47;4929734;28;99157;-71
2022/11/06 05:17:24;;;;;;;10.07;6.68;;;;;;;10.63;59.26;101403.25;4930477;28;96793;-71
2022/11/06 05:19:53;;;;;;;15.80;7.32;;;;;;;10.39;59.76;101407.34;4931448;28;101035;-71
2022/11/06 05:25:05;;;;;;;20.27;6.78;;;;;;;10.43;60.09;101416.09;4929272;28;97005;-71
2022/11/06 05:27:32;;;;;;;16.33;6.97;;;;;;;10.48;59.42;101416.81;4931361;28;97373;-71
2022/11/06 05:29:58;;;;;;;18.75;7.50;;;;;;;10.42;59.55;101414.34;4929525;28;101785;-71
2022/11/06 05:32:25;;;;;;;16.63;6.93;;;;;;;10.35;59.62;101409.19;4928864;28;99450;-70
2022/11/06 05:34:52;;;;;;;14.43;6.50;;;;;;;10.29;60.03;101408.47;4929343;28;96840;-71
2022/11/06 05:37:19;;;;;;;12.18;6.00;;;;;;;10.11;60.60;101400.97;4931907;28;97087;-69
2022/11/06 05:39:46;;;;;;;13.48;6.97;;;;;;;10.09;60.22;101410.69;4928796;28;98869;-67
2022/11/06 05:42:13;;;;;;;12.45;6.55;;;;;;;10.27;60.03;101405.88;4931469;28;99198;-68
2022/11/06 05:44:39;;;;;;;14.02;6.70;;;;;;;10.46;59.27;101408.94;4928781;28;98286;-68
2022/11/06 05:47:06;;;;;;;13.98;6.90;;;;;;;10.30;59.72;101404.94;4928137;28;98979;-68
2022/11/06 05:49:32;;;;;;;16.23;7.40;;;;;;;10.21;60.15;101410.44;4927596;28;97810;-70
2022/11/06 05:52:00;;;;;;;11.32;6.40;;;;;;;10.24;59.84;101405.09;4931859;28;99322;-69
2022/11/06 05:54:27;;;;;;;12.15;6.53;;;;;;;10.35;59.77;101410.97;4928778;28;97376;-68
2022/11/06 05:56:53;;;;;;;15.02;7.18;;;;;;;10.41;59.31;101418.75;4930105;28;96860;-68
2022/11/06 05:59:20;;;;;;;15.30;7.43;;;;;;;10.51;58.99;101419.38;4930032;28;99018;-68
2022/11/06 06:01:46;;;;;;;11.45;6.03;;;;;;;10.36;59.32;101418.88;4929550;28;99067;-68
2022/11/06 06:04:12;;;;;;;15.63;7.43;;;;;;;10.36;59.39;101416.22;4928026;28;96972;-70
2022/11/06 06:06:39;;;;;;;11.50;6.57;;;;;;;10.33;59.40;101410.13;4927790;28;99372;-69
2022/11/06 06:09:07;;;;;;;13.40;6.22;;;;;;;10.30;59.34;101415.50;4932342;28;101237;-70
2022/11/06 06:11:33;;;;;;;17.55;6.32;;;;;;;10.16;59.62;101412.28;4929473;28;98513;-69
2022/11/06 06:14:00;;;;;;;12.90;6.88;;;;;;;10.03;60.59;101411.69;4928487;28;97091;-69
2022/11/06 06:16:27;;;;;;;15.25;7.35;;;;;;;10.10;60.19;101407.16;4925728;28;97802;-71
2022/11/06 06:18:53;;;;;;;15.82;7.75;;;;;;;9.97;60.68;101412.72;4932179;28;99158;-69
2022/11/06 06:21:20;;;;;;;17.50;6.88;;;;;;;10.28;59.71;101406.75;4927100;28;98152;-69
2022/11/06 06:23:47;;;;;;;14.23;6.85;;;;;;;10.06;60.09;101414.25;4935357;28;96729;-70
2022/11/06 06:26:15;;;;;;;12.50;6.70;;;;;;;10.04;60.11;101413.44;4927070;28;97918;-69
2022/11/06 06:28:41;;;;;;;12.13;7.18;;;;;;;10.03;60.15;101413.47;4929325;28;98958;-70
2022/11/06 06:31:08;;;;;;;10.52;6.78;;;;;;;9.79;60.97;101412.22;4928873;28;99177;-69
2022/11/06 06:33:35;;;;;;;12.07;6.75;;;;;;;10.07;60.08;101423.91;4930673;28;97471;-71
2022/11/06 06:36:03;;;;;;;16.88;6.93;;;;;;;9.97;60.20;101422.41;4930228;28;97169;-70
2022/11/06 06:38:30;;;;;;;12.05;7.05;;;;;;;10.15;59.97;101426.38;4925535;28;100338;-70
2022/11/06 06:41:00;;;;;;;16.67;7.47;;;;;;;10.11;59.96;101430.84;4929363;28;99321;-69
2022/11/06 06:43:29;;;;;;;20.00;7.47;;;;;;;10.08;60.42;101430.06;4930464;28;96937;-70
2022/11/06 06:45:57;;;;;;;13.77;6.65;;;;;;;9.86;60.78;101430.53;4929836;28;96859;-70
2022/11/06 06:48:24;;;;;;;14.75;6.78;;;;;;;10.03;60.38;101427.53;4929546;28;98960;-70
2022/11/06 06:50:50;;;;;;;17.17;7.03;;;;;;;10.15;59.70;101431.66;4928386;28;98929;-70
2022/11/06 06:53:17;;;;;;;10.80;7.22;;;;;;;10.11;59.86;101428.22;4930248;28;97107;-71
2022/11/06 06:55:44;;;;;;;12.00;6.85;;;;;;;10.26;59.53;101429.66;4925157;28;97802;-70
2022/11/06 06:58:10;;;;;;;13.98;6.90;;;;;;;10.36;59.39;101431.22;4926617;28;97903;-70
2022/11/06 07:00:38;;;;;;;13.05;7.35;;;;;;;10.39;59.10;101431.13;4925682;28;98936;-71
2022/11/06 07:03:04;;;;;;;14.30;6.32;;;;;;;10.44;59.17;101437.16;4926341;28;98785;-70
2022/11/06 07:05:31;;;;;;;12.07;7.20;;;;;;;10.70;58.51;101434.75;4926518;28;96894;-70
2022/11/06 07:07:58;;;;;;;9.95;6.55;;;;;;;10.75;58.16;101434.66;4924162;28;99059;-70
2022/11/06 07:10:24;;;;;;;13.13;7.35;;;;;;;10.71;58.15;101427.69;4933580;28;98907;-70
2022/11/06 07:12:51;;;;;;;16.67;7.20;;;;;;;10.55;58.79;101434.28;4928118;28;96860;-71
2022/11/06 07:15:17;;;;;;;15.07;7.10;;;;;;;10.79;58.05;101439.81;4927680;28;96926;-71
2022/11/06 07:17:45;;;;;;;14.20;7.25;;;;;;;10.78;58.02;101438.06;4928387;28;99201;-70
2022/11/06 07:20:12;;;;;;;15.52;6.88;;;;;;;10.76;58.29;101437.22;4925663;28;98975;-71
2022/11/06 07:22:38;;;;;;;14.25;6.85;;;;;;;10.42;58.73;101431.06;4930426;28;96784;-71
2022/11/06 07:25:06;;;;;;;14.07;7.55;;;;;;;10.56;59.09;101433.38;4930789;28;96877;-71
2022/11/06 07:27:32;;;;;;;12.75;7.25;;;;;;;10.82;58.57;101435.38;4931302;28;99298;-71
2022/11/06 07:30:00;;;;;;;16.65;7.40;;;;;;;10.76;58.49;101433.75;4929960;28;99360;-70
2022/11/06 07:32:27;;;;;;;12.23;7.25;;;;;;;11.04;57.92;101436.53;4931918;28;98711;-71
2022/11/06 07:34:55;;;;;;;15.05;6.97;;;;;;;10.68;58.44;101433.06;4932171;28;96825;-70
2022/11/06 07:37:22;;;;;;;14.73;7.28;;;;;;;10.83;58.62;101430.00;4931317;28;99651;-72
2022/11/06 07:39:48;;;;;;;14.27;7.32;;;;;;;10.86;58.17;101429.94;4930712;28;98837;-71
2022/11/06 07:42:16;;;;;;;12.80;7.10;;;;;;;11.07;57.51;101426.75;4931846;28;96744;-71
2022/11/06 07:44:43;;;;;;;13.50;7.30;;;;;;;11.01;57.53;101431.34;4929623;28;97547;-70
2022/11/06 07:47:09;;;;;;;15.30;7.50;;;;;;;10.81;58.52;101431.84;4924295;28;99555;-71
2022/11/06 07:49:36;;;;;;;18.00;7.60;;;;;;;11.01;58.09;101426.03;4929938;28;98909;-71
2022/11/06 07:52:04;;;;;;;15.50;7.55;;;;;;;11.27;57.54;101418.28;4930065;28;97061;-71
2022/11/06 07:54:31;;;;;;;12.80;6.78;;;;;;;11.11;57.88;101424.88;4931341;28;97889;-72
2022/11/06 07:56:57;;;;;;;12.00;7.10;;;;;;;11.30;57.11;101422.59;4931215;28;99335;-71
2022/11/06 07:59:24;;;;;;;18.27;7.28;;;;;;;11.49;56.93;101422.03;4932505;28;99041;-70
2022/11/06 08:01:50;;;;;;;13.98;7.25;;;;;;;11.51;56.75;101416.69;4929071;28;97515;-70
2022/11/06 08:04:18;;;;;;;16.42;6.75;;;;;;;11.67;56.26;101422.44;4930240;28;97222;-71
2022/11/06 08:06:44;;;;;;;13.63;8.15;;;;;;;11.72;56.28;101423.16;4931226;28;99457;-70
2022/11/06 08:09:12;;;;;;;10.88;7.00;;;;;;;11.99;55.45;101419.72;4936249;28;98810;-69
2022/11/06 08:11:39;;;;;;;11.85;7.20;;;;;;;12.06;55.17;101428.34;4930443;28;97003;-70
2022/11/06 08:14:06;;;;;;;15.43;7.03;;;;;;;11.89;55.68;101423.53;4931704;28;96734;-69
2022/11/06 08:16:33;;;;;;;12.90;7.03;;;;;;;12.10;54.96;101422.03;4931180;28;99087;-68
2022/11/06 08:19:02;;;;;;;12.77;7.38;;;;;;;12.23;54.80;101407.47;4931896;28;98911;-68
2022/11/06 08:21:28;;;;;;;13.98;8.05;;;;;;;11.89;55.33;101411.16;4929195;28;98179;-69
2022/11/06 08:23:55;;;;;;;14.15;7.03;;;;;;;12.04;55.02;101401.91;4932774;28;96767;-67
2022/11/06 08:26:23;;;;;;;15.80;7.18;;;;;;;12.18;54.82;101404.97;4930094;28;96969;-68
2022/11/06 08:28:49;;;;;;;15.13;8.13;;;;;;;12.05;55.34;101403.63;4931864;28;99171;-68
2022/11/06 08:31:16;;;;;;;11.35;6.82;;;;;;;11.96;55.24;101409.19;4928229;28;98989;-69
2022/11/06 08:33:43;;;;;;;11.07;7.07;;;;;;;11.96;55.58;101407.41;4928538;28;98711;-69
2022/11/06 08:36:10;;;;;;;12.57;7.03;;;;;;;11.79;56.13;101400.91;4928875;28;99052;-66
2022/11/06 08:38:36;;;;;;;10.50;6.80;;;;;;;12.25;55.16;101411.81;4930956;28;98820;-70
2022/11/06 08:41:07;;;;;;;12.60;6.88;;;;;;;12.15;55.05;101402.41;4931485;28;97212;-68
2022/11/06 08:43:36;;;;;;;12.70;7.28;;;;;;;12.27;54.82;101404.66;4928948;28;97650;-68
2022/11/06 08:46:04;;;;;;;12.27;7.75;;;;;;;12.56;54.03;101397.56;4933888;28;99668;-68
2022/11/06 08:48:30;;;;;;;14.18;7.28;;;;;;;12.56;54.17;101386.97;4927913;28;98126;-69
2022/11/06 08:50:58;;;;;;;14.00;6.97;;;;;;;12.53;53.92;101381.78;4927860;28;98844;-68
2022/11/06 08:53:24;;;;;;;11.20;6.35;;;;;;;12.60;53.86;101384.13;4931388;28;97252;-68
2022/11/06 08:55:51;;;;;;;11.80;7.38;;;;;;;13.17;52.84;101380.44;4924818;28;99389;-69
2022/11/06 08:58:18;;;;;;;14.05;7.20;;;;;;;13.04;52.68;101382.63;4927145;28;99117;-67
2022/11/06 09:00:49;;;;;;;12.98;7.03;;;;;;;12.93;52.87;101386.59;4930456;28;96953;-68
2022/11/06 09:03:19;;;;;;;14.48;6.85;;;;;;;12.75;53.63;101388.94;4925822;28;98660;-68
2022/11/06 09:05:46;;;;;;;13.82;7.05;;;;;;;12.63;53.39;101391.13;4922329;28;100714;-67
2022/11/06 09:08:13;;;;;;;13.52;8.00;;;;;;;12.94;53.33;101383.84;4923920;28;98904;-68
2022/11/06 09:10:42;;;;;;;10.00;6.57;;;;;;;12.76;53.45;101377.41;4930155;28;97266;-67
2022/11/06 09:13:09;;;;;;;12.75;6.63;;;;;;;13.01;52.91;101380.06;4925735;28;98532;-67
2022/11/06 09:15:36;;;;;;;10.45;6.70;;;;;;;13.05;52.61;101375.53;4928510;28;98900;-69
2022/11/06 09:18:04;;;;;;;11.20;6.82;;;;;;;13.21;52.56;101375.88;4930101;28;97778;-68
2022/11/06 09:20:31;;;;;;;16.35;7.25;;;;;;;13.21;52.20;101381.16;4931224;28;96801;-67
2022/11/06 09:23:01;;;;;;;16.60;7.50;;;;;;;13.13;52.39;101370.81;4922408;28;96998;-68
2022/11/06 09:25:29;;;;;;;15.85;6.32;;;;;;;13.24;52.47;101383.72;4928238;28;99138;-68
2022/11/06 09:27:56;;;;;;;11.73;6.22;;;;;;;13.44;51.81;101381.22;4923424;28;98921;-70
2022/11/06 09:30:24;;;;;;;14.55;6.70;;;;;;;13.46;52.23;101382.00;4925430;28;98611;-67
2022/11/06 09:32:54;;;;;;;14.00;6.53;;;;;;;13.76;51.19;101388.81;4924197;28;98602;-68
2022/11/06 09:35:24;;;;;;;11.25;6.63;;;;;;;13.84;50.65;101383.22;4926763;28;98957;-69
2022/11/06 09:37:51;;;;;;;10.95;6.25;;;;;;;13.86;50.85;101384.88;4920483;28;99186;-69
2022/11/06 09:40:22;;;;;;;9.57;6.18;;;;;;;13.98;50.21;101384.38;4924035;28;97249;-71
2022/11/06 09:43:06;;;;;;;13.55;6.55;;;;;;;13.86;50.61;101384.00;4924788;28;97079;-73
2022/11/06 09:45:34;;;;;;;12.15;5.40;;;;;;;13.78;51.13;101381.66;4926434;28;99111;-71
2022/11/06 09:48:07;;;;;;;17.13;6.82;;;;;;;14.21;50.23;101377.31;4930010;28;101094;-72
2022/11/06 09:50:39;;;;;;;10.45;5.88;;;;;;;14.07;50.07;101387.63;4927112;28;97397;-71
2022/11/06 09:53:17;;;;;;;9.35;5.32;;;;;;;14.08;49.90;101387.56;4926178;28;98066;-73
2022/11/06 09:55:46;;;;;;;10.70;5.60;;;;;;;14.11;49.76;101379.44;4924382;28;97824;-73
2022/11/06 09:58:16;;;;;;;9.73;5.97;;;;;;;14.06;49.82;101391.19;4929635;28;98846;-73
2022/11/06 10:00:43;;;;;;;9.43;6.22;;;;;;;14.07;50.28;101388.47;4929450;28;97004;-72
2022/11/06 10:03:29;;;;;;;12.45;5.78;;;;;;;14.18;50.00;101383.59;4924488;28;99704;-70
2022/11/06 10:05:58;;;;;;;12.48;5.90;;;;;;;14.20;49.72;101375.56;4924514;28;99110;-72
2022/11/06 10:08:29;;;;;;;11.50;5.82;;;;;;;14.22;49.53;101377.25;4929259;28;98769;-71
2022/11/06 10:11:04;;;;;;;8.07;4.95;;;;;;;14.29;49.58;101369.88;4927348;28;98688;-70
2022/11/06 10:13:45;;;;;;;9.93;4.88;;;;;;;14.24;49.44;101363.91;4925593;28;97175;-70
2022/11/06 10:16:25;;;;;;;10.55;4.90;;;;;;;14.39;49.69;101363.28;4929638;28;98892;-73
2022/11/06 10:19:01;;;;;;;11.63;5.03;;;;;;;14.31;49.72;101360.03;4930111;28;100708;-72
2022/11/06 10:21:39;;;;;;;13.00;5.32;;;;;;;14.29;49.90;101354.81;4925251;28;98970;-71
2022/11/06 10:24:15;;;;;;;12.60;5.45;;;;;;;14.57;49.42;101343.88;4927105;28;97990;-72
2022/11/06 10:26:47;;;;;;;11.23;5.15;;;;;;;14.42;49.20;101341.03;4926128;28;99586;-71
2022/11/06 10:29:26;;;;;;;9.90;5.00;;;;;;;14.44;49.48;101332.03;4925144;28;99309;-71
2022/11/06 10:32:08;;;;;;;8.73;4.75;;;;;;;14.48;49.32;101336.31;4927717;28;97971;-73
2022/11/06 10:34:47;;;;;;;6.78;4.60;;;;;;;14.64;49.15;101341.84;4929727;28;96840;-71
2022/11/06 10:37:20;;;;;;;10.15;4.97;;;;;;;14.70;48.94;101334.44;4928334;28;99335;-71
2022/11/06 10:39:48;;;;;;;13.50;4.45;;;;;;;14.73;48.93;101336.13;4925488;28;99256;-71
2022/11/06 10:42:18;;;;;;;12.85;5.10;;;;;;;14.88;48.76;101319.50;4931923;28;97206;-71
2022/11/06 10:44:50;;;;;;;6.68;4.22;;;;;;;14.69;48.76;101324.78;4930432;28;98520;-72
2022/11/06 10:47:19;;;;;;;9.25;4.57;;;;;;;14.50;49.27;101321.19;4914208;28;99329;-70
2022/11/06 10:49:50;;;;;;;7.65;4.78;;;;;;;14.46;49.42;101318.69;4924060;28;98326;-71
2022/11/06 10:52:41;;;;;;;8.48;4.45;;;;;;;14.76;48.85;101314.72;4930775;28;99019;-73
2022/11/06 10:55:43;;;;;;;10.45;4.80;;;;;;;14.80;48.88;101315.44;4928577;28;98658;-72
2022/11/06 10:58:19;;;;;;;11.02;4.93;;;;;;;14.62;48.86;101294.03;4927823;28;98230;-71
2022/11/06 11:00:46;;;;;;;6.93;4.10;;;;;;;14.52;49.21;101292.69;4930310;28;99279;-71
2022/11/06 11:03:24;;;;;;;14.20;5.18;;;;;;;14.61;49.15;101294.09;4930022;28;98965;-73
2022/11/06 11:05:50;;;;;;;9.70;4.50;;;;;;;14.73;49.20;101291.78;4927227;28;96925;-73
2022/11/06 11:08:37;;;;;;;8.20;4.60;;;;;;;14.87;48.33;101298.28;4927087;28;98473;-71
2022/11/06 11:11:05;;;;;;;6.65;4.07;;;;;;;14.61;49.06;101284.34;4917820;28;101473;-71
2022/11/06 11:13:32;;;;;;;8.85;4.10;;;;;;;14.34;49.56;101275.72;4927275;28;96762;-71
2022/11/06 11:15:59;;;;;;;7.53;4.53;;;;;;;14.20;50.00;101278.09;4920587;28;98796;-72
2022/11/06 11:18:30;;;;;;;9.68;4.55;;;;;;;14.19;50.27;101275.50;4922205;28;98877;-71
2022/11/06 11:21:07;;;;;;;8.50;4.57;;;;;;;14.21;50.43;101281.63;4921989;28;98197;-71
2022/11/06 11:23:35;;;;;;;6.68;4.40;;;;;;;14.57;49.66;101277.41;4921288;28;97026;-72
2022/11/06 11:26:19;;;;;;;14.93;4.88;;;;;;;14.40;49.98;101279.06;4924366;28;97185;-71
2022/11/06 11:28:52;;;;;;;9.20;4.28;;;;;;;14.44;49.82;101272.72;4923887;28;99338;-71
2022/11/06 11:31:19;;;;;;;6.13;3.75;;;;;;;14.49;49.48;101276.91;4925492;28;101499;-72
2022/11/06 11:33:52;;;;;;;10.65;4.40;;;;;;;14.58;49.69;101272.94;4927589;28;97438;-71
2022/11/06 11:36:18;;;;;;;7.53;4.30;;;;;;;14.67;49.65;101278.75;4927865;28;97209;-74
2022/11/06 11:38:48;;;;;;;9.52;4.20;;;;;;;14.80;49.37;101278.19;4923252;28;99185;-73
2022/11/06 11:41:22;;;;;;;8.35;4.38;;;;;;;14.53;49.32;101269.63;4927414;28;99190;-72